Terminal Aerodrome Forecast
Issued by NWS

Home | Current Version | Previous Version | Text Only | Print | Product List | Glossary On
Versions: 1 2 3 4 5 6 7 8 9 10 11 12 13 14 15 16 17 18 19 20 21 22
000
FTPQ31 PGUM 240530
TAFGSN
TAF
PGSN 240530Z 2406/2506 11011KT P6SM VCSH SCT020 BKN100
      TEMPO 2412/2416 4SM SHRA BKN020=

USA.gov is the U.S. government's official web portal to all federal, state and local government web resources and services.